createdAt,value
2023-05-21T00:01:43.388Z,98496.94
2023-05-21T00:04:12.005Z,98494.44
2023-05-21T00:06:39.593Z,98490.97
2023-05-21T00:09:07.770Z,98491.66
2023-05-21T00:11:36.036Z,98489.16
2023-05-21T00:14:03.354Z,98483.06
2023-05-21T00:16:30.947Z,98480.53
2023-05-21T00:18:58.443Z,98487.47
2023-05-21T00:21:26.593Z,98487.75
2023-05-21T00:23:56.533Z,98488.31
2023-05-21T00:26:24.342Z,98487.34
2023-05-21T00:28:51.638Z,98486.78
2023-05-21T00:31:19.388Z,98485.97
2023-05-21T00:33:46.721Z,98483.09
2023-05-21T00:36:14.660Z,98482.94
2023-05-21T00:38:44.176Z,98481.28
2023-05-21T00:41:12.201Z,98482.81
2023-05-21T00:43:42.343Z,98483.50
2023-05-21T00:46:16.597Z,98479.47
2023-05-21T00:48:49.475Z,98479.59
2023-05-21T00:51:18.777Z,98477.22
2023-05-21T00:53:46.842Z,98473.19
2023-05-21T00:56:14.538Z,98473.44
2023-05-21T00:58:42.280Z,98472.91
2023-05-21T01:01:13.863Z,98465.97
2023-05-21T01:03:41.652Z,98468.16
2023-05-21T01:06:11.443Z,98472.22
2023-05-21T01:08:41.052Z,98468.09
2023-05-21T01:11:11.303Z,98464.88
2023-05-21T01:13:41.469Z,98458.06
2023-05-21T01:16:11.573Z,98464.63
2023-05-21T01:18:39.190Z,98463.78
2023-05-21T01:21:09.944Z,98458.22
2023-05-21T01:23:37.425Z,98460.16
2023-05-21T01:26:05.038Z,98461.84
2023-05-21T01:28:34.541Z,98465.16
2023-05-21T01:31:27.818Z,98461.69
2023-05-21T01:34:05.804Z,98454.91
2023-05-21T01:36:42.877Z,98456.13
2023-05-21T01:39:22.866Z,98456.53
2023-05-21T01:41:54.442Z,98457.22
2023-05-21T01:44:23.305Z,98447.38
2023-05-21T01:46:53.892Z,98446.97
2023-05-21T01:49:22.413Z,98445.56
2023-05-21T01:51:50.518Z,98451.53
2023-05-21T01:54:17.972Z,98442.09
2023-05-21T01:56:46.222Z,98440.41
2023-05-21T01:59:13.778Z,98434.44
2023-05-21T02:01:41.483Z,98429.56
2023-05-21T02:04:09.055Z,98427.19
2023-05-21T02:06:36.952Z,98430.66
2023-05-21T02:09:04.923Z,98425.66
2023-05-21T02:11:32.734Z,98431.63
2023-05-21T02:14:00.663Z,98428.41
2023-05-21T02:16:28.357Z,98428.97
2023-05-21T02:18:57.603Z,98422.28
2023-05-21T02:21:25.518Z,98418.28
2023-05-21T02:23:52.953Z,98414.94
2023-05-21T02:26:21.980Z,98416.44
2023-05-21T02:28:49.439Z,98415.75
2023-05-21T02:31:17.007Z,98413.25
2023-05-21T02:33:44.504Z,98417.81
2023-05-21T02:36:13.020Z,98424.72
2023-05-21T02:38:43.793Z,98411.69
2023-05-21T02:41:12.523Z,98403.38
2023-05-21T02:43:40.208Z,98420.84
2023-05-21T02:46:08.064Z,98408.06
2023-05-21T02:48:35.688Z,98408.47
2023-05-21T02:51:03.497Z,98398.34
2023-05-21T02:53:31.242Z,98397.34
2023-05-21T02:55:58.916Z,98402.91
2023-05-21T02:58:26.176Z,98405.56
2023-05-21T03:00:53.837Z,98402.22
2023-05-21T03:03:21.280Z,98408.47
2023-05-21T03:05:49.243Z,98406.06
2023-05-21T03:08:17.127Z,98404.28
2023-05-21T03:10:44.823Z,98406.06
2023-05-21T03:13:12.481Z,98401.63
2023-05-21T03:15:40.471Z,98405.50
2023-05-21T03:18:07.911Z,98408.00
2023-05-21T03:20:35.574Z,98401.63
2023-05-21T03:23:04.537Z,98409.69
2023-05-21T03:25:32.168Z,98399.13
2023-05-21T03:27:59.436Z,98405.38
2023-05-21T03:30:26.984Z,98411.22
2023-05-21T03:32:56.502Z,98402.41
2023-05-21T03:35:24.161Z,98405.56
2023-05-21T03:37:51.548Z,98410.81
2023-05-21T03:40:19.307Z,98401.25
2023-05-21T03:42:46.610Z,98404.91
2023-05-21T03:45:14.223Z,98403.53
2023-05-21T03:47:42.183Z,98400.63
2023-05-21T03:50:11.222Z,98398.38
2023-05-21T03:52:38.538Z,98392.03
2023-05-21T03:55:06.885Z,98396.31
2023-05-21T03:57:34.288Z,98401.31
2023-05-21T04:00:01.967Z,98398.53
2023-05-21T04:02:29.591Z,98394.94
2023-05-21T04:04:57.403Z,98398.41
2023-05-21T04:07:24.885Z,98395.06
2023-05-21T04:09:53.165Z,98392.47
2023-05-21T04:12:20.608Z,98397.78
2023-05-21T04:14:48.494Z,98393.34
2023-05-21T04:17:15.833Z,98397.34
2023-05-21T04:19:43.555Z,98403.50
2023-05-21T04:22:12.251Z,98401.84
2023-05-21T04:24:39.853Z,98406.84
2023-05-21T04:27:07.201Z,98408.25
2023-05-21T04:29:34.795Z,98406.44
2023-05-21T04:32:02.148Z,98406.03
2023-05-21T04:34:29.859Z,98410.22
2023-05-21T04:36:57.103Z,98414.38
2023-05-21T04:39:24.717Z,98405.91
2023-05-21T04:41:54.754Z,98407.44
2023-05-21T04:44:22.676Z,98405.34
2023-05-21T04:46:50.787Z,98409.41
2023-05-21T04:49:18.435Z,98412.72
2023-05-21T04:51:46.933Z,98411.06
2023-05-21T04:54:14.524Z,98411.03
2023-05-21T04:56:41.859Z,98417.44
2023-05-21T04:59:09.418Z,98416.44
2023-05-21T05:01:38.594Z,98420.38
2023-05-21T05:04:06.596Z,98429.13
2023-05-21T05:06:34.002Z,98427.56
2023-05-21T05:09:01.677Z,98421.03
2023-05-21T05:11:29.075Z,98413.09
2023-05-21T05:13:57.226Z,98416.84
2023-05-21T05:16:28.069Z,98420.47
2023-05-21T05:18:56.095Z,98426.13
2023-05-21T05:21:24.218Z,98424.88
2023-05-21T05:23:51.838Z,98434.75
2023-05-21T05:26:19.576Z,98425.41
2023-05-21T05:28:47.493Z,98425.13
2023-05-21T05:31:14.908Z,98419.13
2023-05-21T05:33:42.613Z,98425.66
2023-05-21T05:36:09.994Z,98423.13
2023-05-21T05:38:37.601Z,98428.50
2023-05-21T05:41:05.052Z,98418.63
2023-05-21T05:43:32.759Z,98425.88
2023-05-21T05:46:00.532Z,98423.38
2023-05-21T05:48:28.353Z,98417.88
2023-05-21T05:50:57.149Z,98419.59
2023-05-21T05:53:25.019Z,98413.94
2023-05-21T05:55:52.406Z,98418.38
2023-05-21T05:58:20.036Z,98422.63
2023-05-21T06:00:48.199Z,98430.16
2023-05-21T06:03:16.032Z,98426.00
2023-05-21T06:05:43.734Z,98420.03
2023-05-21T06:08:11.468Z,98421.50
2023-05-21T06:10:38.860Z,98427.97
2023-05-21T06:13:06.689Z,98417.13
2023-05-21T06:15:34.448Z,98418.47
2023-05-21T06:18:02.261Z,98419.28
2023-05-21T06:20:30.079Z,98422.41
2023-05-21T06:22:57.612Z,98416.81
2023-05-21T06:25:25.936Z,98409.59
2023-05-21T06:27:53.679Z,98406.13
2023-05-21T06:30:21.202Z,98416.47
2023-05-21T06:32:48.903Z,98406.81
2023-05-21T06:35:16.517Z,98406.03
2023-05-21T06:37:44.217Z,98410.91
2023-05-21T06:40:11.946Z,98410.84
2023-05-21T06:42:39.528Z,98410.34
2023-05-21T06:45:07.661Z,98405.88
2023-05-21T06:47:35.346Z,98411.59
2023-05-21T06:50:02.718Z,98400.38
2023-05-21T06:52:31.848Z,98400.94
2023-05-21T06:54:59.238Z,98401.47
2023-05-21T06:57:26.850Z,98397.19
2023-05-21T06:59:54.176Z,98396.84
2023-05-21T07:02:21.886Z,98394.03
2023-05-21T07:04:49.214Z,98394.19
2023-05-21T07:07:16.784Z,98397.06
2023-05-21T07:09:44.140Z,98390.25
2023-05-21T07:12:11.880Z,98393.97
2023-05-21T07:14:39.235Z,98392.28
2023-05-21T07:17:06.978Z,98393.28
2023-05-21T07:19:34.634Z,98384.47
2023-05-21T07:22:02.385Z,98386.28
2023-05-21T07:24:29.821Z,98388.59
2023-05-21T07:26:57.484Z,98393.09
2023-05-21T07:29:24.801Z,98386.38
2023-05-21T07:31:52.554Z,98393.03
2023-05-21T07:34:19.982Z,98382.19
2023-05-21T07:36:47.649Z,98385.84
2023-05-21T07:39:15.495Z,98386.34
2023-05-21T07:41:43.463Z,98383.47
2023-05-21T07:44:11.093Z,98382.44
2023-05-21T07:46:38.666Z,98386.41
2023-05-21T07:49:07.027Z,98377.16
2023-05-21T07:51:34.849Z,98368.34
2023-05-21T07:54:02.295Z,98371.41
2023-05-21T07:56:32.452Z,98368.69
2023-05-21T07:58:59.808Z,98377.31
2023-05-21T08:01:29.771Z,98375.72
2023-05-21T08:03:57.792Z,98373.78
2023-05-21T08:06:26.867Z,98373.53
2023-05-21T08:08:54.445Z,98377.78
2023-05-21T08:11:22.092Z,98375.28
2023-05-21T08:13:50.336Z,98374.13
2023-05-21T08:16:18.095Z,98374.88
2023-05-21T08:18:45.478Z,98367.88
2023-05-21T08:21:13.269Z,98374.88
2023-05-21T08:23:40.615Z,98364.22
2023-05-21T08:26:08.642Z,98365.59
2023-05-21T08:28:39.192Z,98370.38
2023-05-21T08:31:07.233Z,98370.59
2023-05-21T08:33:39.041Z,98365.63
2023-05-21T08:36:07.587Z,98364.25
2023-05-21T08:38:36.582Z,98372.16
2023-05-21T08:41:07.935Z,98367.47
2023-05-21T08:43:39.466Z,98362.22
2023-05-21T08:46:09.983Z,98363.91
2023-05-21T08:48:38.888Z,98356.06
2023-05-21T08:51:06.749Z,98355.63
2023-05-21T08:53:34.868Z,98362.53
2023-05-21T08:56:02.849Z,98363.28
2023-05-21T08:58:33.899Z,98349.81
2023-05-21T09:01:02.674Z,98347.34
2023-05-21T09:03:32.015Z,98343.59
2023-05-21T09:06:00.364Z,98347.31
2023-05-21T09:08:42.001Z,98351.41
2023-05-21T09:11:09.787Z,98348.72
2023-05-21T09:13:40.420Z,98355.16
2023-05-21T09:16:10.220Z,98347.50
2023-05-21T09:18:37.615Z,98362.34
2023-05-21T09:21:26.535Z,98351.38
2023-05-21T09:23:59.055Z,98351.09
2023-05-21T09:26:27.079Z,98353.84
2023-05-21T09:28:59.483Z,98353.03
2023-05-21T09:31:27.639Z,98338.84
2023-05-21T09:33:58.206Z,98348.34
2023-05-21T09:36:27.025Z,98343.19
2023-05-21T09:38:54.378Z,98346.97
2023-05-21T09:41:36.126Z,98343.84
2023-05-21T09:44:04.800Z,98357.19
2023-05-21T09:46:42.079Z,98359.22
2023-05-21T09:49:29.228Z,98356.53
2023-05-21T09:51:58.313Z,98348.94
2023-05-21T09:54:31.449Z,98357.81
2023-05-21T09:57:02.735Z,98350.63
2023-05-21T09:59:40.366Z,98352.50
2023-05-21T10:02:24.072Z,98357.69
2023-05-21T10:04:54.801Z,98352.38
2023-05-21T10:07:26.498Z,98355.34
2023-05-21T10:10:00.596Z,98349.84
2023-05-21T10:12:30.934Z,98349.97
2023-05-21T10:15:04.031Z,98341.25
2023-05-21T10:17:31.832Z,98345.84
2023-05-21T10:20:05.274Z,98343.47
2023-05-21T10:22:34.388Z,98341.09
2023-05-21T10:25:03.876Z,98344.69
2023-05-21T10:27:33.836Z,98338.19
2023-05-21T10:30:02.099Z,98328.94
2023-05-21T10:32:31.972Z,98336.81
2023-05-21T10:35:01.627Z,98324.34
2023-05-21T10:37:30.085Z,98317.13
2023-05-21T10:40:16.549Z,98303.88
2023-05-21T10:43:51.842Z,98305.81
2023-05-21T10:46:40.539Z,98298.53
2023-05-21T10:49:32.808Z,98288.56
2023-05-21T10:52:50.170Z,98297.84
2023-05-21T10:55:43.725Z,98288.06
2023-05-21T10:58:32.576Z,98277.03
2023-05-21T11:01:04.077Z,98285.31
2023-05-21T11:03:36.487Z,98283.47
2023-05-21T11:06:06.608Z,98285.09
2023-05-21T11:08:38.998Z,98270.94
2023-05-21T11:11:06.821Z,98278.09
2023-05-21T11:13:51.589Z,98264.03
2023-05-21T11:16:21.792Z,98270.81
2023-05-21T11:18:49.219Z,98284.53
2023-05-21T11:21:21.999Z,98267.94
2023-05-21T11:23:57.058Z,98268.34
2023-05-21T11:26:28.571Z,98257.66
2023-05-21T11:29:04.969Z,98268.69
2023-05-21T11:31:38.781Z,98267.59
2023-05-21T11:34:28.848Z,98262.66
2023-05-21T11:37:18.394Z,98256.03
2023-05-21T11:39:46.453Z,98254.19
2023-05-21T11:42:31.132Z,98259.47
2023-05-21T11:45:00.172Z,98254.88
2023-05-21T11:47:29.577Z,98255.97
2023-05-21T11:50:04.080Z,98250.53
2023-05-21T11:52:33.111Z,98249.72
2023-05-21T11:55:00.639Z,98249.94
2023-05-21T11:57:31.312Z,98240.00
2023-05-21T12:00:01.557Z,98255.03
2023-05-21T12:02:32.756Z,98245.00
2023-05-21T12:05:00.624Z,98236.66
2023-05-21T12:07:30.092Z,98236.91
2023-05-21T12:09:58.376Z,98250.75
2023-05-21T12:12:35.325Z,98246.94
2023-05-21T12:15:10.522Z,98247.91
2023-05-21T12:17:39.406Z,98248.94
2023-05-21T12:20:09.096Z,98242.31
2023-05-21T12:22:43.304Z,98250.72
2023-05-21T12:25:12.190Z,98251.19
2023-05-21T12:27:42.240Z,98245.00
2023-05-21T12:30:10.148Z,98251.94
2023-05-21T12:32:44.562Z,98236.81
2023-05-21T12:35:24.679Z,98243.34
2023-05-21T12:37:52.955Z,98247.06
2023-05-21T12:40:20.839Z,98233.09
2023-05-21T12:42:49.814Z,98247.47
2023-05-21T12:45:18.917Z,98238.19
2023-05-21T12:47:50.585Z,98236.72
2023-05-21T12:50:21.851Z,98235.22
2023-05-21T12:52:49.512Z,98229.69
2023-05-21T12:55:17.671Z,98228.88
2023-05-21T12:57:45.782Z,98228.00
2023-05-21T13:00:14.355Z,98234.16
2023-05-21T13:02:44.813Z,98235.72
2023-05-21T13:05:18.453Z,98215.66
2023-05-21T13:07:47.090Z,98231.34
2023-05-21T13:10:16.955Z,98233.22
2023-05-21T13:12:46.203Z,98226.09
2023-05-21T13:15:15.306Z,98226.78
2023-05-21T13:17:42.970Z,98214.41
2023-05-21T13:20:12.622Z,98222.19
2023-05-21T13:22:49.373Z,98221.47
2023-05-21T13:25:24.644Z,98213.50
2023-05-21T13:27:53.762Z,98219.13
2023-05-21T13:30:22.490Z,98219.59
2023-05-21T13:32:50.678Z,98218.38
2023-05-21T13:35:18.184Z,98218.81
2023-05-21T13:37:46.213Z,98211.13
2023-05-21T13:40:16.031Z,98205.94
2023-05-21T13:42:46.334Z,98211.03
2023-05-21T13:45:17.549Z,98209.53
2023-05-21T13:47:47.814Z,98207.91
2023-05-21T13:50:16.640Z,98207.16
2023-05-21T13:52:44.515Z,98204.22
2023-05-21T13:55:12.101Z,98208.78
2023-05-21T13:57:40.819Z,98203.81
2023-05-21T14:00:10.621Z,98202.38
2023-05-21T14:02:38.440Z,98207.50
2023-05-21T14:05:06.437Z,98196.78
2023-05-21T14:07:34.125Z,98194.69
2023-05-21T14:10:01.640Z,98197.00
2023-05-21T14:12:29.266Z,98198.34
2023-05-21T14:14:56.576Z,98201.88
2023-05-21T14:17:24.232Z,98204.75
2023-05-21T14:19:51.526Z,98202.94
2023-05-21T14:22:19.698Z,98209.28
2023-05-21T14:24:47.215Z,98201.84
2023-05-21T14:27:16.266Z,98202.72
2023-05-21T14:29:43.692Z,98197.94
2023-05-21T14:32:11.335Z,98193.34
2023-05-21T14:34:39.196Z,98185.75
2023-05-21T14:37:06.874Z,98197.22
2023-05-21T14:39:34.236Z,98190.81
2023-05-21T14:42:05.012Z,98196.03
2023-05-21T14:44:32.698Z,98199.72
2023-05-21T14:47:00.468Z,98193.59
2023-05-21T14:49:28.483Z,98196.91
2023-05-21T14:51:56.151Z,98186.56
2023-05-21T14:54:23.490Z,98186.84
2023-05-21T14:56:51.071Z,98194.50
2023-05-21T14:59:18.448Z,98192.63
2023-05-21T15:01:46.328Z,98198.63
2023-05-21T15:04:13.791Z,98198.59
2023-05-21T15:06:42.185Z,98206.88
2023-05-21T15:09:09.588Z,98199.69
2023-05-21T15:11:37.260Z,98198.22
2023-05-21T15:14:04.706Z,98199.84
2023-05-21T15:16:32.353Z,98211.22
2023-05-21T15:18:59.803Z,98201.94
2023-05-21T15:21:28.154Z,98195.34
2023-05-21T15:23:55.818Z,98209.34
2023-05-21T15:46:42.645Z,98190.34
2023-05-21T15:49:10.629Z,98198.81
2023-05-21T15:51:38.613Z,98199.38
2023-05-21T15:54:06.717Z,98194.75
2023-05-21T15:56:34.029Z,98195.59
2023-05-21T15:59:01.750Z,98195.00
2023-05-21T16:01:29.414Z,98202.19
2023-05-21T16:03:57.200Z,98193.50
2023-05-21T16:06:24.659Z,98202.03
2023-05-21T16:08:52.256Z,98192.94
2023-05-21T16:11:19.750Z,98197.28
2023-05-21T16:13:47.441Z,98210.97
2023-05-21T16:16:15.222Z,98199.81
2023-05-21T16:18:44.307Z,98210.81
2023-05-21T16:21:11.801Z,98203.63
2023-05-21T16:23:39.672Z,98212.38
2023-05-21T16:26:09.243Z,98206.44
2023-05-21T16:28:37.873Z,98206.41
2023-05-21T16:31:05.766Z,98214.53
2023-05-21T16:33:33.453Z,98201.78
2023-05-21T16:36:01.003Z,98203.22
2023-05-21T16:38:28.626Z,98217.81
2023-05-21T16:40:56.241Z,98211.31
2023-05-21T16:43:24.042Z,98205.69
2023-05-21T16:45:53.027Z,98214.75
2023-05-21T16:48:20.796Z,98215.97
2023-05-21T16:50:48.371Z,98207.41
2023-05-21T16:53:16.429Z,98220.31
2023-05-21T16:55:43.988Z,98216.00
2023-05-21T16:58:13.657Z,98221.91
2023-05-21T17:00:41.035Z,98218.63
2023-05-21T17:03:08.731Z,98205.19
2023-05-21T17:05:36.379Z,98217.72
2023-05-21T17:08:04.383Z,98216.03
2023-05-21T17:10:34.130Z,98216.16
2023-05-21T17:13:09.674Z,98214.75
2023-05-21T17:15:45.517Z,98218.75
2023-05-21T17:18:13.152Z,98216.13
2023-05-21T17:20:40.644Z,98216.41
2023-05-21T17:23:08.289Z,98223.59
2023-05-21T17:25:35.826Z,98218.88
2023-05-21T17:28:03.874Z,98214.41
2023-05-21T17:30:31.209Z,98208.31
2023-05-21T17:32:58.942Z,98227.25
2023-05-21T17:35:26.331Z,98217.50
2023-05-21T17:37:53.935Z,98226.00
2023-05-21T17:40:23.924Z,98228.81
2023-05-21T17:42:54.886Z,98220.28
2023-05-21T17:45:22.312Z,98213.97
2023-05-21T17:47:49.974Z,98225.47
2023-05-21T17:50:17.312Z,98219.16
2023-05-21T17:52:44.976Z,98224.59
2023-05-21T17:55:12.392Z,98227.00
2023-05-21T17:57:40.013Z,98230.72
2023-05-21T18:00:08.660Z,98236.31
2023-05-21T18:02:36.312Z,98229.91
2023-05-21T18:05:04.008Z,98228.31
2023-05-21T18:07:32.225Z,98228.66
2023-05-21T18:09:59.621Z,98239.56
2023-05-21T18:12:27.293Z,98238.16
2023-05-21T18:14:55.016Z,98238.28
2023-05-21T18:17:22.761Z,98236.44
2023-05-21T18:19:51.150Z,98236.16
2023-05-21T18:22:18.779Z,98233.75
2023-05-21T18:24:46.345Z,98238.50
2023-05-21T18:27:13.947Z,98235.06
2023-05-21T18:29:41.295Z,98233.19
2023-05-21T18:32:11.046Z,98232.69
2023-05-21T18:34:38.524Z,98236.59
2023-05-21T18:37:06.903Z,98238.47
2023-05-21T18:39:34.217Z,98232.84
2023-05-21T18:42:12.926Z,98233.41
2023-05-21T18:44:41.567Z,98230.16
2023-05-21T18:47:09.505Z,98221.38
2023-05-21T18:49:36.960Z,98226.88
2023-05-21T18:52:06.452Z,98225.75
2023-05-21T18:54:33.882Z,98231.41
2023-05-21T18:57:01.620Z,98226.94
2023-05-21T18:59:29.384Z,98227.91
2023-05-21T19:01:57.221Z,98232.09
2023-05-21T19:04:24.762Z,98241.88
2023-05-21T19:06:52.465Z,98237.41
2023-05-21T19:09:19.792Z,98248.84
2023-05-21T19:11:47.465Z,98252.34
2023-05-21T19:14:15.097Z,98248.38
2023-05-21T19:16:43.047Z,98252.16
2023-05-21T19:19:10.738Z,98251.84
2023-05-21T19:21:38.743Z,98250.38
2023-05-21T19:24:06.987Z,98254.34
2023-05-21T19:26:35.013Z,98257.50
2023-05-21T19:29:02.483Z,98254.50
2023-05-21T19:31:30.396Z,98258.47
2023-05-21T19:33:57.899Z,98258.47
2023-05-21T19:36:25.559Z,98255.13
2023-05-21T19:38:52.958Z,98257.13
2023-05-21T19:41:22.102Z,98259.13
2023-05-21T19:43:49.483Z,98265.69
2023-05-21T19:46:20.150Z,98261.03
2023-05-21T19:48:48.791Z,98259.84
2023-05-21T19:51:17.191Z,98262.34
2023-05-21T19:53:44.627Z,98259.00
2023-05-21T19:56:12.244Z,98261.31
2023-05-21T19:58:39.636Z,98257.19
2023-05-21T20:01:07.579Z,98261.97
2023-05-21T20:03:38.243Z,98260.31
2023-05-21T20:06:06.051Z,98266.41
2023-05-21T20:08:33.487Z,98259.25
2023-05-21T20:11:01.189Z,98253.63
2023-05-21T20:13:28.531Z,98251.94
2023-05-21T20:15:56.217Z,98250.91
2023-05-21T20:18:25.108Z,98251.19
2023-05-21T20:20:53.133Z,98248.69
2023-05-21T20:23:20.611Z,98246.59
2023-05-21T20:25:48.363Z,98245.63
2023-05-21T20:28:15.944Z,98253.72
2023-05-21T20:30:59.821Z,98251.19
2023-05-21T20:33:30.960Z,98248.53
2023-05-21T20:35:59.463Z,98246.13
2023-05-21T20:38:27.537Z,98241.69
2023-05-21T20:40:55.869Z,98239.81
2023-05-21T20:43:24.617Z,98238.34
2023-05-21T20:45:59.708Z,98241.31
2023-05-21T20:48:32.048Z,98242.81
2023-05-21T20:51:00.412Z,98245.16
2023-05-21T20:53:27.911Z,98239.94
2023-05-21T20:55:58.672Z,98233.47
2023-05-21T20:58:26.047Z,98238.72
2023-05-21T21:00:55.317Z,98237.81
2023-05-21T21:03:23.054Z,98231.19
2023-05-21T21:05:50.796Z,98237.53
2023-05-21T21:08:18.171Z,98235.72
2023-05-21T21:10:47.143Z,98237.34
2023-05-21T21:13:14.926Z,98246.44
2023-05-21T21:15:44.118Z,98244.22
2023-05-21T21:18:14.622Z,98239.34
2023-05-21T21:20:42.783Z,98245.09
2023-05-21T21:23:10.277Z,98236.91
2023-05-21T21:25:38.031Z,98251.44
2023-05-21T21:28:05.476Z,98241.97
2023-05-21T21:30:33.116Z,98242.28
2023-05-21T21:33:00.721Z,98247.25
2023-05-21T21:35:28.409Z,98235.41
2023-05-21T21:37:55.845Z,98245.06
2023-05-21T21:40:23.567Z,98233.03
2023-05-21T21:42:50.954Z,98236.81
2023-05-21T21:45:18.791Z,98244.00
2023-05-21T21:47:46.233Z,98242.34
2023-05-21T21:50:14.066Z,98245.97
2023-05-21T21:52:41.785Z,98248.88
2023-05-21T21:55:11.563Z,98247.53
2023-05-21T21:57:42.271Z,98253.13
2023-05-21T22:00:19.655Z,98247.75
2023-05-21T22:02:47.103Z,98251.06
2023-05-21T22:05:15.006Z,98251.38
2023-05-21T22:07:48.229Z,98253.44
2023-05-21T22:10:17.533Z,98252.13
2023-05-21T22:12:46.234Z,98257.56
2023-05-21T22:15:27.626Z,98253.25
2023-05-21T22:17:55.739Z,98257.84
2023-05-21T22:20:23.976Z,98249.25
2023-05-21T22:22:52.372Z,98245.66
2023-05-21T22:25:21.460Z,98245.53
2023-05-21T22:27:49.027Z,98237.59
2023-05-21T22:30:16.962Z,98242.50
2023-05-21T22:32:44.617Z,98238.63
2023-05-21T22:35:12.726Z,98235.44
2023-05-21T22:37:40.641Z,98234.63
2023-05-21T22:40:09.418Z,98234.78
2023-05-21T22:42:37.182Z,98236.88
2023-05-21T22:45:05.844Z,98232.31
2023-05-21T22:47:33.296Z,98236.34
2023-05-21T22:50:04.451Z,98233.16
2023-05-21T22:52:32.062Z,98236.13
2023-05-21T22:55:00.740Z,98232.50
2023-05-21T22:57:28.407Z,98227.78
2023-05-21T22:59:56.081Z,98231.41
2023-05-21T23:02:23.528Z,98233.19
2023-05-21T23:04:51.335Z,98229.03
2023-05-21T23:07:18.739Z,98225.00
2023-05-21T23:09:46.915Z,98228.91
2023-05-21T23:12:14.301Z,98216.13
2023-05-21T23:14:41.994Z,98219.47
2023-05-21T23:17:09.858Z,98217.56
2023-05-21T23:19:37.729Z,98221.97
2023-05-21T23:22:05.502Z,98219.47
2023-05-21T23:24:35.197Z,98211.38
2023-05-21T23:27:03.689Z,98213.63
2023-05-21T23:29:31.355Z,98224.03
2023-05-21T23:32:01.100Z,98225.97
2023-05-21T23:34:28.520Z,98226.13
2023-05-21T23:36:58.072Z,98217.91
2023-05-21T23:39:28.769Z,98222.75
2023-05-21T23:41:56.853Z,98223.50
2023-05-21T23:44:24.381Z,98224.03
2023-05-21T23:46:52.091Z,98214.47
2023-05-21T23:49:19.484Z,98225.25
2023-05-21T23:51:50.714Z,98213.50
2023-05-21T23:54:18.388Z,98215.84
2023-05-21T23:56:46.630Z,98218.47
2023-05-21T23:59:15.095Z,98223.44
